Time;durP1;ratioP1;P1;durP2;ratioP2;P2;SDS_P1;SDS_P2;PMS_P1;PMS_P2;Temp;Humidity;BMP_temperature;BMP_pressure;BME280_temperature;BME280_humidity;BME280_pressure;Samples;Min_cycle;Max_cycle;Signal;HPM_P1;HPM_P2
2023/09/25 00:00:40;;;;;;;4.40;2.90;;;13.00;99.90;;;;;;5040727;28;20033;-49
2023/09/25 00:03:06;;;;;;;3.30;2.95;;;13.00;99.90;;;;;;5037340;28;20025;-51
2023/09/25 00:05:31;;;;;;;3.25;2.50;;;13.00;99.90;;;;;;5046294;28;20021;-51
2023/09/25 00:07:57;;;;;;;3.40;2.50;;;12.90;99.90;;;;;;5046238;28;20017;-51
2023/09/25 00:10:23;;;;;;;4.38;2.70;;;12.90;99.90;;;;;;5041878;28;20037;-51
2023/09/25 00:12:49;;;;;;;3.20;2.70;;;12.90;99.90;;;;;;5039288;28;20064;-51
2023/09/25 00:15:15;;;;;;;4.93;2.58;;;12.90;99.90;;;;;;5042157;28;20458;-49
2023/09/25 00:17:42;;;;;;;3.08;2.35;;;12.90;99.90;;;;;;5049442;28;20394;-51
2023/09/25 00:20:10;;;;;;;5.90;2.80;;;12.90;99.90;;;;;;5042081;28;20014;-51
2023/09/25 00:22:40;;;;;;;5.30;2.85;;;12.90;99.90;;;;;;5039152;28;20039;-49
2023/09/25 00:25:06;;;;;;;2.97;2.63;;;12.80;99.90;;;;;;5035562;28;20108;-52
2023/09/25 00:27:32;;;;;;;3.28;2.88;;;12.80;99.90;;;;;;5041174;28;20043;-51
2023/09/25 00:29:58;;;;;;;4.32;2.72;;;12.80;99.90;;;;;;5038774;28;20503;-51
2023/09/25 00:32:24;;;;;;;4.97;2.38;;;12.80;99.90;;;;;;5041768;28;20024;-52
2023/09/25 00:34:49;;;;;;;3.70;2.63;;;12.80;99.90;;;;;;5041912;28;20029;-51
2023/09/25 00:37:15;;;;;;;3.63;2.65;;;12.80;99.90;;;;;;5041940;28;20028;-49
2023/09/25 00:39:42;;;;;;;7.05;3.05;;;12.70;99.90;;;;;;5041686;28;20364;-49
2023/09/25 00:42:08;;;;;;;3.15;2.85;;;12.70;99.90;;;;;;5023839;28;20028;-51
2023/09/25 00:44:33;;;;;;;8.52;3.38;;;12.70;99.90;;;;;;5041334;28;20025;-48
2023/09/25 00:46:59;;;;;;;5.03;2.60;;;12.70;99.90;;;;;;5042887;28;20036;-47
2023/09/25 00:49:26;;;;;;;2.60;2.33;;;12.70;99.90;;;;;;5045783;28;20028;-48
2023/09/25 00:51:52;;;;;;;3.25;2.17;;;12.70;99.90;;;;;;5042098;28;20045;-51
2023/09/25 00:54:18;;;;;;;4.90;2.70;;;12.60;99.90;;;;;;5043963;28;20025;-49
2023/09/25 00:56:46;;;;;;;3.90;2.97;;;12.60;99.90;;;;;;5043593;28;20036;-47
2023/09/25 00:59:12;;;;;;;4.20;2.55;;;12.60;99.90;;;;;;5044499;28;20032;-50
2023/09/25 01:01:38;;;;;;;4.80;3.17;;;12.60;99.90;;;;;;5039921;28;20475;-49
2023/09/25 01:04:04;;;;;;;5.00;2.40;;;12.60;99.90;;;;;;5042404;28;20033;-48
2023/09/25 01:06:29;;;;;;;3.05;2.78;;;12.60;99.90;;;;;;5045164;28;20036;-49
2023/09/25 01:08:55;;;;;;;4.55;2.70;;;12.60;99.90;;;;;;5041968;28;20050;-48
2023/09/25 01:11:22;;;;;;;5.85;2.78;;;12.60;99.90;;;;;;5042613;28;20359;-49
2023/09/25 01:13:47;;;;;;;6.28;3.30;;;12.60;99.90;;;;;;5039179;28;20080;-50
2023/09/25 01:16:13;;;;;;;5.70;3.40;;;12.60;99.90;;;;;;5041543;28;20100;-50
2023/09/25 01:18:38;;;;;;;3.65;3.15;;;12.60;99.90;;;;;;5044366;28;20049;-50
2023/09/25 01:21:04;;;;;;;3.85;3.28;;;12.60;99.90;;;;;;5037993;28;20033;-48
2023/09/25 01:23:30;;;;;;;5.13;3.30;;;12.50;99.90;;;;;;5045187;28;20381;-47
2023/09/25 01:25:55;;;;;;;3.67;3.30;;;12.50;99.90;;;;;;5041719;28;20037;-49
2023/09/25 01:28:21;;;;;;;3.83;3.15;;;12.50;99.90;;;;;;5042259;28;20059;-51
2023/09/25 01:30:46;;;;;;;3.20;2.70;;;12.50;99.90;;;;;;5041911;28;20068;-52
2023/09/25 01:33:12;;;;;;;4.60;2.90;;;12.50;99.90;;;;;;5041815;28;20360;-52
2023/09/25 01:35:37;;;;;;;6.70;3.60;;;12.50;99.90;;;;;;5039508;28;20032;-50
2023/09/25 01:38:04;;;;;;;6.88;3.53;;;12.40;99.90;;;;;;5039672;28;20028;-49
2023/09/25 01:40:31;;;;;;;3.83;2.92;;;12.40;99.90;;;;;;5045271;28;20538;-51
2023/09/25 01:42:57;;;;;;;9.35;3.00;;;12.40;99.90;;;;;;5041941;28;20158;-51
2023/09/25 01:45:23;;;;;;;5.60;3.28;;;12.40;99.90;;;;;;5042421;28;20021;-48
2023/09/25 01:47:50;;;;;;;4.65;3.17;;;12.30;99.90;;;;;;5045055;28;20475;-49
2023/09/25 01:50:27;;;;;;;5.03;2.88;;;12.30;99.90;;;;;;5040791;28;20568;-49
2023/09/25 01:52:57;;;;;;;4.82;3.13;;;12.30;99.90;;;;;;5039226;28;20116;-50
2023/09/25 01:55:24;;;;;;;;;;;12.20;99.90;;;;;;5046035;28;20032;-51
2023/09/25 01:57:49;;;;;;;4.53;3.63;;;12.20;99.90;;;;;;5039163;28;20468;-51
2023/09/25 02:00:18;;;;;;;5.07;3.47;;;12.10;99.90;;;;;;5044439;28;20059;-51
2023/09/25 02:02:44;;;;;;;8.38;4.10;;;12.10;99.90;;;;;;5043623;28;20036;-50
2023/09/25 02:05:10;;;;;;;4.97;3.20;;;12.00;99.90;;;;;;5043968;28;20045;-49
2023/09/25 02:07:35;;;;;;;4.80;3.58;;;12.00;99.90;;;;;;5043700;28;20053;-50
2023/09/25 02:10:01;;;;;;;3.50;3.20;;;11.90;99.90;;;;;;5044591;28;20024;-50
2023/09/25 02:12:27;;;;;;;4.38;3.63;;;11.90;99.90;;;;;;5045401;28;20025;-49
2023/09/25 02:14:57;;;;;;;5.15;3.72;;;11.80;99.90;;;;;;5042991;28;20031;-49
2023/09/25 02:17:22;;;;;;;7.28;3.90;;;11.80;99.90;;;;;;5036702;28;20080;-48
2023/09/25 02:19:48;;;;;;;5.85;3.95;;;11.70;99.90;;;;;;5041582;28;20025;-48
2023/09/25 02:22:13;;;;;;;4.97;4.32;;;11.70;99.90;;;;;;5046665;28;20044;-51
2023/09/25 02:24:39;;;;;;;4.07;3.67;;;11.70;99.90;;;;;;5045773;28;20044;-49
2023/09/25 02:27:05;;;;;;;4.85;3.65;;;11.70;99.90;;;;;;5044207;28;20025;-51
2023/09/25 02:29:30;;;;;;;6.00;3.65;;;11.60;99.90;;;;;;5045554;28;20036;-51
2023/09/25 02:31:56;;;;;;;5.75;3.97;;;11.60;99.90;;;;;;5043444;28;20649;-49
2023/09/25 02:34:22;;;;;;;4.65;3.58;;;11.60;99.90;;;;;;5044314;28;20028;-50
2023/09/25 02:36:47;;;;;;;5.50;3.85;;;11.50;99.90;;;;;;5044763;28;20032;-50
2023/09/25 02:39:13;;;;;;;5.30;3.53;;;11.60;99.90;;;;;;5049941;28;20040;-48
2023/09/25 02:41:39;;;;;;;6.05;4.22;;;11.50;99.90;;;;;;5045804;28;20033;-49
2023/09/25 02:44:05;;;;;;;8.82;5.47;;;11.50;99.90;;;;;;5046513;28;20026;-51
2023/09/25 02:46:31;;;;;;;4.95;4.45;;;11.50;99.90;;;;;;5046704;28;20025;-50
2023/09/25 02:48:56;;;;;;;5.60;3.90;;;11.50;99.90;;;;;;5038648;28;20124;-51
2023/09/25 02:51:22;;;;;;;3.95;3.55;;;11.40;99.90;;;;;;5046401;28;20031;-50
2023/09/25 02:53:48;;;;;;;4.88;4.05;;;11.40;99.90;;;;;;5047651;28;20036;-49
2023/09/25 02:56:13;;;;;;;5.72;3.42;;;11.40;99.90;;;;;;5045620;28;20021;-48
2023/09/25 02:58:39;;;;;;;5.75;4.60;;;11.30;99.90;;;;;;5043123;28;20029;-51
2023/09/25 03:01:04;;;;;;;7.00;4.60;;;11.30;99.90;;;;;;5048621;28;20312;-51
2023/09/25 03:03:30;;;;;;;5.55;3.75;;;11.40;99.90;;;;;;5044994;28;20021;-51
2023/09/25 03:05:55;;;;;;;7.78;5.03;;;11.40;99.90;;;;;;5044324;28;20035;-50
2023/09/25 03:08:21;;;;;;;8.20;5.50;;;11.40;99.90;;;;;;5046576;28;20021;-50
2023/09/25 03:10:47;;;;;;;9.25;6.38;;;11.40;99.90;;;;;;5047027;28;20033;-51
2023/09/25 03:13:12;;;;;;;9.05;5.25;;;11.40;99.90;;;;;;5046288;28;20021;-51
2023/09/25 03:15:38;;;;;;;6.80;5.03;;;11.40;99.90;;;;;;5046027;28;20040;-49
2023/09/25 03:18:04;;;;;;;5.80;5.28;;;11.40;99.90;;;;;;5043976;28;20025;-51
2023/09/25 03:20:30;;;;;;;7.82;4.47;;;11.40;99.90;;;;;;5041655;28;20475;-50
2023/09/25 03:22:56;;;;;;;6.53;4.68;;;11.40;99.90;;;;;;5046199;28;20028;-51
2023/09/25 03:25:22;;;;;;;7.32;4.60;;;11.30;99.90;;;;;;5049032;28;20488;-49
2023/09/25 03:27:49;;;;;;;4.50;4.10;;;11.30;99.90;;;;;;5048612;28;20155;-48
2023/09/25 03:30:15;;;;;;;7.88;5.07;;;11.30;99.90;;;;;;5043578;28;20030;-48
2023/09/25 03:32:41;;;;;;;5.57;4.25;;;11.20;99.90;;;;;;5045641;28;20032;-51
2023/09/25 03:35:07;;;;;;;5.72;4.55;;;11.30;99.90;;;;;;5046952;28;20013;-51
2023/09/25 03:37:32;;;;;;;6.72;5.47;;;11.30;99.90;;;;;;5048915;28;20405;-52
2023/09/25 03:39:58;;;;;;;9.13;4.95;;;11.20;99.90;;;;;;5045693;28;20029;-48
2023/09/25 03:42:23;;;;;;;5.43;4.90;;;11.10;99.90;;;;;;5039283;28;20399;-51
2023/09/25 03:44:51;;;;;;;6.07;4.90;;;11.10;99.90;;;;;;5033798;28;20488;-50
2023/09/25 03:47:18;;;;;;;8.05;6.22;;;11.10;99.90;;;;;;5045877;28;20032;-51
2023/09/25 03:49:44;;;;;;;9.48;5.13;;;11.00;99.90;;;;;;5044876;28;20021;-51
2023/09/25 03:52:10;;;;;;;7.10;4.60;;;10.90;99.90;;;;;;5042331;28;20506;-50
2023/09/25 03:54:35;;;;;;;7.75;6.28;;;10.90;99.90;;;;;;5048499;28;20091;-51
2023/09/25 03:57:01;;;;;;;6.65;5.88;;;10.90;99.90;;;;;;5043858;28;20057;-50
2023/09/25 03:59:26;;;;;;;5.70;5.18;;;10.80;99.90;;;;;;5040918;28;20036;-48
2023/09/25 04:01:52;;;;;;;6.55;5.70;;;10.80;99.90;;;;;;5043177;28;20021;-52
2023/09/25 04:04:17;;;;;;;10.40;6.43;;;10.70;99.90;;;;;;5045885;28;20047;-52
2023/09/25 04:06:43;;;;;;;6.82;5.78;;;10.70;99.90;;;;;;5048411;28;20025;-50
2023/09/25 04:09:09;;;;;;;7.95;6.15;;;10.70;99.90;;;;;;5050839;28;20013;-51
2023/09/25 04:11:34;;;;;;;9.95;6.80;;;10.60;99.90;;;;;;5043630;28;20033;-48
2023/09/25 04:14:03;;;;;;;7.90;5.63;;;10.60;99.90;;;;;;5045157;28;20454;-51
2023/09/25 04:16:28;;;;;;;7.70;5.88;;;10.50;99.90;;;;;;5046923;28;20062;-47
2023/09/25 04:18:54;;;;;;;6.00;5.28;;;10.50;99.90;;;;;;5046895;28;20083;-49
2023/09/25 04:21:21;;;;;;;6.05;5.45;;;10.50;99.90;;;;;;5046084;28;20029;-50
2023/09/25 04:23:47;;;;;;;7.00;5.60;;;10.50;99.90;;;;;;5045214;28;20082;-48
2023/09/25 04:26:13;;;;;;;7.07;5.53;;;10.50;99.90;;;;;;5048733;28;20037;-49
2023/09/25 04:28:40;;;;;;;7.00;5.97;;;10.50;99.90;;;;;;5046901;28;20083;-47
2023/09/25 04:31:06;;;;;;;6.05;5.45;;;10.40;99.90;;;;;;5044818;28;20048;-50
2023/09/25 04:33:32;;;;;;;6.50;5.38;;;10.30;99.90;;;;;;5046340;28;20454;-49
2023/09/25 04:36:01;;;;;;;6.93;4.82;;;10.30;99.90;;;;;;5046688;28;20037;-51
2023/09/25 04:38:32;;;;;;;7.38;5.57;;;10.30;99.90;;;;;;5050054;28;20098;-50
2023/09/25 04:40:58;;;;;;;6.05;5.30;;;10.30;99.90;;;;;;5043550;28;20129;-48
2023/09/25 04:43:23;;;;;;;7.18;5.88;;;10.30;99.90;;;;;;5045223;28;20103;-48
2023/09/25 04:45:55;;;;;;;6.32;5.22;;;10.20;99.90;;;;;;5046261;28;20279;-49
2023/09/25 04:48:24;;;;;;;7.03;5.43;;;10.20;99.90;;;;;;5048198;28;20036;-48
2023/09/25 04:50:49;;;;;;;6.55;4.75;;;10.20;99.90;;;;;;5047908;28;20087;-49
2023/09/25 04:53:15;;;;;;;6.25;5.22;;;10.20;99.90;;;;;;5044995;28;20453;-51
2023/09/25 04:55:41;;;;;;;6.45;5.03;;;10.10;99.90;;;;;;5039881;28;20045;-51
2023/09/25 04:58:07;;;;;;;6.45;4.82;;;10.20;99.90;;;;;;5046183;28;20405;-51
2023/09/25 05:00:33;;;;;;;6.60;5.07;;;10.10;99.90;;;;;;5047630;28;20104;-51
2023/09/25 05:02:59;;;;;;;7.13;4.85;;;10.10;99.90;;;;;;5047507;28;20013;-53
2023/09/25 05:05:26;;;;;;;5.43;4.85;;;10.10;99.90;;;;;;5043448;28;20028;-55
2023/09/25 05:07:54;;;;;;;7.20;5.97;;;10.10;99.90;;;;;;5041364;28;20474;-55
2023/09/25 05:10:25;;;;;;;9.07;6.55;;;10.00;99.90;;;;;;5047324;28;20031;-55
2023/09/25 05:12:52;;;;;;;8.85;6.20;;;10.00;99.90;;;;;;5047116;28;20368;-55
2023/09/25 05:15:18;;;;;;;6.32;5.68;;;9.90;99.90;;;;;;5044967;28;20029;-55
2023/09/25 05:17:45;;;;;;;8.05;6.35;;;9.90;99.90;;;;;;5048111;28;20451;-55
2023/09/25 05:20:15;;;;;;;10.30;5.72;;;9.90;99.90;;;;;;5044885;28;20018;-55
2023/09/25 05:22:49;;;;;;;8.20;5.25;;;9.90;99.90;;;;;;5054360;28;20017;-55
2023/09/25 05:25:15;;;;;;;10.45;6.28;;;9.90;99.90;;;;;;5043824;28;20032;-54
2023/09/25 05:27:43;;;;;;;8.30;6.40;;;9.90;99.90;;;;;;5047878;28;20021;-55
2023/09/25 05:30:10;;;;;;;7.97;5.53;;;9.90;99.90;;;;;;5045291;28;20051;-54
2023/09/25 05:32:44;;;;;;;9.48;6.32;;;10.00;99.90;;;;;;5040614;28;20049;-54
2023/09/25 05:35:10;;;;;;;7.72;6.65;;;10.00;99.90;;;;;;5046038;28;20033;-55
2023/09/25 05:37:37;;;;;;;7.50;6.00;;;10.10;99.90;;;;;;5045029;28;20040;-55
2023/09/25 05:40:10;;;;;;;6.63;5.68;;;10.10;99.90;;;;;;5045175;28;20505;-55
2023/09/25 05:42:40;;;;;;;10.38;7.35;;;10.10;99.90;;;;;;5046132;28;20017;-55
2023/09/25 05:45:07;;;;;;;9.03;6.47;;;10.20;99.90;;;;;;5046267;28;20074;-54
2023/09/25 05:47:35;;;;;;;7.28;5.95;;;10.30;99.90;;;;;;5042046;28;20029;-54
2023/09/25 05:50:02;;;;;;;5.93;5.32;;;10.40;99.90;;;;;;5046692;28;20033;-54
2023/09/25 05:52:28;;;;;;;8.30;5.88;;;10.40;99.90;;;;;;5048302;28;20082;-54
2023/09/25 05:54:54;;;;;;;7.82;5.10;;;10.60;99.90;;;;;;5043326;28;20457;-54
2023/09/25 05:57:20;;;;;;;5.75;5.20;;;10.70;99.90;;;;;;5046367;28;20124;-54
2023/09/25 05:59:46;;;;;;;9.13;5.88;;;10.70;99.90;;;;;;5048844;28;20029;-54
2023/09/25 06:02:11;;;;;;;6.68;5.68;;;10.80;99.90;;;;;;5046725;28;20067;-54
2023/09/25 06:04:37;;;;;;;6.40;4.80;;;10.90;99.90;;;;;;5047908;28;20079;-56
2023/09/25 06:07:04;;;;;;;5.78;4.30;;;11.00;99.90;;;;;;5041768;28;20509;-55
2023/09/25 06:09:31;;;;;;;9.90;5.20;;;11.10;99.90;;;;;;5045827;28;20467;-55
2023/09/25 06:11:57;;;;;;;5.70;4.47;;;11.20;99.90;;;;;;5044688;28;20033;-55
2023/09/25 06:14:23;;;;;;;5.85;4.90;;;11.20;99.90;;;;;;5046823;28;20024;-55
2023/09/25 06:16:50;;;;;;;4.95;4.00;;;11.30;99.90;;;;;;5044812;28;20045;-55
2023/09/25 06:19:18;;;;;;;4.72;4.15;;;11.40;99.90;;;;;;5046601;28;20017;-55
2023/09/25 06:21:44;;;;;;;8.10;4.72;;;11.40;99.90;;;;;;5047421;28;20025;-55
2023/09/25 06:24:09;;;;;;;4.63;4.20;;;11.50;99.90;;;;;;5045753;28;20066;-55
2023/09/25 06:26:46;;;;;;;4.75;4.28;;;11.50;99.90;;;;;;5048009;28;20115;-55
2023/09/25 06:29:13;;;;;;;5.40;4.10;;;11.60;99.90;;;;;;5045468;28;20032;-55
2023/09/25 06:31:39;;;;;;;8.05;3.63;;;11.70;99.90;;;;;;5046573;28;20028;-55
2023/09/25 06:34:07;;;;;;;5.75;4.85;;;11.70;99.90;;;;;;5046827;28;20129;-55
2023/09/25 06:36:33;;;;;;;7.40;5.05;;;11.90;99.90;;;;;;5047529;28;20024;-55
2023/09/25 06:38:59;;;;;;;5.78;4.47;;;12.00;99.90;;;;;;5042463;28;20174;-55
2023/09/25 06:41:26;;;;;;;8.25;4.75;;;12.10;99.90;;;;;;5047308;28;20530;-55
2023/09/25 06:43:51;;;;;;;5.53;4.35;;;12.10;99.90;;;;;;5048155;28;20054;-55
2023/09/25 06:46:17;;;;;;;5.70;3.75;;;12.20;99.90;;;;;;5047435;28;20029;-55
2023/09/25 06:48:42;;;;;;;3.90;3.40;;;12.30;99.90;;;;;;5046147;28;20029;-55
2023/09/25 06:51:08;;;;;;;4.97;3.95;;;12.40;99.90;;;;;;5046383;28;20037;-55
2023/09/25 06:53:33;;;;;;;7.13;3.40;;;12.50;99.90;;;;;;5047839;28;20371;-55
2023/09/25 06:55:59;;;;;;;6.40;3.90;;;12.60;99.90;;;;;;5045918;28;20020;-55
2023/09/25 06:58:25;;;;;;;3.35;2.90;;;12.70;99.90;;;;;;5046523;28;20013;-55
2023/09/25 07:00:51;;;;;;;3.97;3.28;;;12.80;99.90;;;;;;5045177;28;20029;-55
2023/09/25 07:03:16;;;;;;;3.25;2.67;;;12.90;99.90;;;;;;5045945;28;20025;-55
2023/09/25 07:05:42;;;;;;;4.00;2.72;;;13.00;99.90;;;;;;5051602;28;20029;-55
2023/09/25 07:08:08;;;;;;;2.45;2.25;;;13.10;99.90;;;;;;5050743;28;20021;-55
2023/09/25 07:10:34;;;;;;;6.28;3.38;;;13.20;99.90;;;;;;5049529;28;20619;-55
2023/09/25 07:13:00;;;;;;;3.17;2.70;;;13.40;99.90;;;;;;5050719;28;20029;-55
2023/09/25 07:15:26;;;;;;;3.15;2.72;;;13.50;99.90;;;;;;5051190;28;20016;-55
2023/09/25 07:17:51;;;;;;;2.83;2.58;;;13.60;99.90;;;;;;5051257;28;20029;-55
2023/09/25 07:20:17;;;;;;;3.10;2.55;;;13.70;99.90;;;;;;5045028;28;20052;-55
2023/09/25 07:22:42;;;;;;;2.60;2.40;;;13.80;99.90;;;;;;5045483;28;20033;-55
2023/09/25 07:25:09;;;;;;;2.33;2.13;;;13.90;99.90;;;;;;5051083;28;20037;-55
2023/09/25 07:27:34;;;;;;;5.28;3.28;;;14.00;99.90;;;;;;5051226;28;20498;-55
2023/09/25 07:30:01;;;;;;;6.22;3.05;;;14.10;99.90;;;;;;5047934;28;20032;-55
2023/09/25 07:32:28;;;;;;;2.45;2.25;;;14.20;99.90;;;;;;5050563;28;20044;-55
2023/09/25 07:34:54;;;;;;;3.97;2.53;;;14.30;99.90;;;;;;5049285;28;20056;-55
2023/09/25 07:37:19;;;;;;;5.25;2.25;;;14.50;99.90;;;;;;5050898;28;20054;-55
2023/09/25 07:39:45;;;;;;;2.92;2.50;;;14.50;99.90;;;;;;5041309;28;20041;-55
2023/09/25 07:42:11;;;;;;;4.55;2.22;;;14.60;99.90;;;;;;5041925;28;20048;-55
2023/09/25 07:44:36;;;;;;;2.83;2.42;;;14.70;99.90;;;;;;5031945;28;20490;-56
2023/09/25 07:47:06;;;;;;;6.22;2.60;;;14.80;99.90;;;;;;5031319;28;20044;-55
2023/09/25 07:49:44;;;;;;;3.03;2.47;;;14.90;99.90;;;;;;5031610;28;20013;-55
2023/09/25 07:52:16;;;;;;;3.08;2.22;;;15.10;99.90;;;;;;5042227;28;20017;-55
2023/09/25 07:54:46;;;;;;;4.05;2.38;;;15.20;99.90;;;;;;5039135;28;20018;-55
2023/09/25 07:57:16;;;;;;;3.47;2.60;;;15.20;99.90;;;;;;5039499;28;20506;-55
2023/09/25 07:59:42;;;;;;;5.18;2.33;;;15.30;99.90;;;;;;5031542;28;20029;-55
2023/09/25 08:02:08;;;;;;;4.15;3.10;;;15.40;99.90;;;;;;5032264;28;20495;-55
2023/09/25 08:04:35;;;;;;;5.65;3.08;;;15.60;99.90;;;;;;5043563;28;20100;-55
2023/09/25 08:07:02;;;;;;;4.95;2.85;;;15.60;99.90;;;;;;5037990;28;20116;-57
2023/09/25 08:09:28;;;;;;;3.72;2.35;;;15.70;99.90;;;;;;5031598;28;20596;-56
2023/09/25 08:11:53;;;;;;;3.15;2.20;;;15.90;99.90;;;;;;5032822;28;20056;-56
2023/09/25 08:14:19;;;;;;;2.75;2.10;;;16.00;99.90;;;;;;5047326;28;20095;-55
2023/09/25 08:16:45;;;;;;;4.88;2.00;;;16.20;99.90;;;;;;5029257;28;20037;-55
2023/09/25 08:19:10;;;;;;;3.88;2.10;;;16.50;99.90;;;;;;5033676;28;20040;-55
2023/09/25 08:21:35;;;;;;;4.03;1.92;;;17.50;99.90;;;;;;5040894;28;20044;-56
2023/09/25 08:24:02;;;;;;;4.25;1.40;;;19.10;99.90;;;;;;5038974;28;20048;-56
2023/09/25 08:26:29;;;;;;;5.13;1.40;;;20.40;97.30;;;;;;5031474;28;20017;-56
2023/09/25 08:28:57;;;;;;;2.17;1.40;;;21.90;94.10;;;;;;5032666;28;20033;-57
2023/09/25 08:31:23;;;;;;;3.08;1.40;;;23.70;92.20;;;;;;5038954;28;20029;-54
2023/09/25 08:33:49;;;;;;;2.88;1.50;;;25.20;88.00;;;;;;5032010;28;20487;-55
2023/09/25 08:36:14;;;;;;;1.55;1.30;;;26.10;84.70;;;;;;5040801;28;20029;-54
2023/09/25 08:38:40;;;;;;;2.70;1.27;;;27.30;80.90;;;;;;5044281;28;20069;-55
2023/09/25 08:41:05;;;;;;;2.58;1.30;;;27.80;75.80;;;;;;5039166;28;20053;-54
2023/09/25 08:43:32;;;;;;;2.42;1.15;;;28.90;73.20;;;;;;5038562;28;20447;-55
2023/09/25 08:45:58;;;;;;;2.17;1.20;;;29.90;70.00;;;;;;5038661;28;20482;-55
2023/09/25 08:48:24;;;;;;;2.30;1.20;;;30.60;69.20;;;;;;5031834;28;20029;-55
2023/09/25 08:50:49;;;;;;;1.40;1.10;;;31.40;67.00;;;;;;5031528;28;20450;-55
2023/09/25 08:53:15;;;;;;;2.15;1.02;;;31.70;65.00;;;;;;5034713;28;20382;-55
2023/09/25 08:55:43;;;;;;;1.23;0.98;;;31.90;64.00;;;;;;5039196;28;20422;-55
2023/09/25 08:58:09;;;;;;;2.08;1.20;;;31.70;63.50;;;;;;5038584;28;20092;-56
2023/09/25 09:00:35;;;;;;;1.23;0.90;;;32.60;61.40;;;;;;5038611;28;20079;-55
2023/09/25 09:03:01;;;;;;;1.10;1.00;;;32.40;59.90;;;;;;5036765;28;20112;-55
2023/09/25 09:05:26;;;;;;;0.80;0.80;;;32.10;61.30;;;;;;5039034;28;20120;-55
2023/09/25 09:08:05;;;;;;;2.40;1.67;;;32.40;57.60;;;;;;5039411;28;20018;-55
2023/09/25 09:10:32;;;;;;;;;;;32.60;58.70;;;;;;5039999;28;20076;-55
2023/09/25 09:12:58;;;;;;;1.10;0.85;;;32.90;58.00;;;;;;5040931;28;19909;-55
2023/09/25 09:15:28;;;;;;;2.80;1.00;;;33.00;56.20;;;;;;5037521;28;20059;-55
2023/09/25 09:17:55;;;;;;;1.35;1.10;;;33.30;56.80;;;;;;5035241;28;20033;-55
2023/09/25 09:20:41;;;;;;;1.60;0.93;;;33.60;56.90;;;;;;5032434;28;20078;-55
2023/09/25 09:23:07;;;;;;;1.05;0.95;;;34.10;53.90;;;;;;5031442;28;20498;-55
2023/09/25 09:25:33;;;;;;;2.38;0.90;;;32.80;51.50;;;;;;5031238;28;20029;-55
2023/09/25 09:27:59;;;;;;;1.35;0.90;;;32.70;53.50;;;;;;5045555;28;20021;-55
2023/09/25 09:30:25;;;;;;;2.42;1.15;;;33.20;56.30;;;;;;5032010;28;20025;-55
2023/09/25 09:32:52;;;;;;;2.08;1.42;;;33.90;54.20;;;;;;5037739;28;20034;-55
2023/09/25 09:35:25;;;;;;;1.38;0.98;;;34.20;53.40;;;;;;5038245;28;20376;-55
2023/09/25 09:37:55;;;;;;;1.20;0.90;;;34.40;56.60;;;;;;5031603;28;20458;-55
2023/09/25 09:40:25;;;;;;;2.95;1.10;;;35.00;52.80;;;;;;5032286;28;20037;-55
2023/09/25 09:42:52;;;;;;;4.10;1.20;;;34.90;53.70;;;;;;5034167;28;20025;-55
2023/09/25 09:45:19;;;;;;;1.42;1.00;;;35.90;51.60;;;;;;5035128;28;20032;-56
2023/09/25 09:47:46;;;;;;;2.08;1.25;;;36.30;49.70;;;;;;5036027;28;20024;-55
2023/09/25 09:50:13;;;;;;;1.73;1.20;;;36.00;51.50;;;;;;5035276;28;20056;-55
2023/09/25 09:52:39;;;;;;;2.47;1.00;;;35.50;53.70;;;;;;5035653;28;20052;-55
2023/09/25 09:55:07;;;;;;;4.55;1.20;;;35.50;50.40;;;;;;5038353;28;20223;-55
2023/09/25 09:57:33;;;;;;;1.45;1.00;;;35.50;51.30;;;;;;5038348;28;20455;-55
2023/09/25 09:59:59;;;;;;;2.88;1.20;;;35.50;50.80;;;;;;5039599;28;20021;-55
2023/09/25 10:02:31;;;;;;;1.20;0.88;;;35.90;50.80;;;;;;5039397;28;20025;-55
2023/09/25 10:04:57;;;;;;;1.88;1.23;;;35.80;51.40;;;;;;5039068;28;20111;-55
2023/09/25 10:07:23;;;;;;;1.58;1.20;;;35.80;50.50;;;;;;5041394;28;20032;-55
2023/09/25 10:10:05;;;;;;;1.05;0.85;;;35.70;52.30;;;;;;5031092;28;20018;-55
2023/09/25 10:12:45;;;;;;;1.50;1.10;;;35.60;48.70;;;;;;5034845;28;20462;-55
2023/09/25 10:15:14;;;;;;;1.58;1.00;;;35.10;49.90;;;;;;5035343;28;20113;-55
2023/09/25 10:17:45;;;;;;;1.80;1.10;;;34.20;49.10;;;;;;5035622;28;20017;-55
2023/09/25 10:20:34;;;;;;;2.90;1.20;;;34.20;52.20;;;;;;5035253;28;20022;-55
2023/09/25 10:23:07;;;;;;;1.77;0.90;;;33.70;49.60;;;;;;5030698;28;20378;-55
2023/09/25 10:25:45;;;;;;;1.33;1.02;;;34.20;50.20;;;;;;5037386;28;20086;-55
2023/09/25 10:28:27;;;;;;;2.25;1.00;;;34.10;51.50;;;;;;5034017;28;20009;-56
2023/09/25 10:30:59;;;;;;;1.52;0.95;;;34.00;49.60;;;;;;5031972;28;20040;-56
2023/09/25 10:33:33;;;;;;;1.40;0.90;;;33.70;48.30;;;;;;5031855;28;20020;-55
2023/09/25 10:36:01;;;;;;;2.85;1.10;;;33.80;50.50;;;;;;5034465;28;20026;-55
2023/09/25 10:38:28;;;;;;;1.05;0.95;;;34.00;50.00;;;;;;5040061;28;20025;-55
2023/09/25 10:40:58;;;;;;;1.00;0.90;;;33.90;49.50;;;;;;5041702;28;20021;-55
2023/09/25 10:43:25;;;;;;;1.30;0.85;;;34.00;49.60;;;;;;5035543;28;20394;-55
2023/09/25 10:45:53;;;;;;;2.03;1.10;;;33.20;48.70;;;;;;5038963;28;20025;-55
2023/09/25 10:48:19;;;;;;;1.80;0.90;;;33.50;50.50;;;;;;5036414;28;20198;-55
2023/09/25 10:50:45;;;;;;;1.17;0.93;;;34.20;48.90;;;;;;5038413;28;20070;-55
2023/09/25 10:53:11;;;;;;;1.20;1.00;;;34.60;49.30;;;;;;5050520;28;20024;-55
2023/09/25 10:55:38;;;;;;;1.02;0.75;;;35.20;48.20;;;;;;5045547;28;20020;-55
2023/09/25 10:58:06;;;;;;;1.52;1.20;;;33.80;49.50;;;;;;5045985;28;20025;-55
2023/09/25 11:00:32;;;;;;;0.82;0.82;;;33.50;48.30;;;;;;5037066;28;20021;-55
2023/09/25 11:02:59;;;;;;;2.17;0.88;;;34.10;47.40;;;;;;5036213;28;20032;-55
2023/09/25 11:05:25;;;;;;;2.78;1.00;;;33.00;47.10;;;;;;5044131;28;20047;-55
2023/09/25 11:07:51;;;;;;;2.13;1.20;;;32.90;49.00;;;;;;5039725;28;20028;-55
2023/09/25 11:10:17;;;;;;;2.05;1.10;;;33.00;49.80;;;;;;5039245;28;20044;-55
2023/09/25 11:12:47;;;;;;;1.42;1.08;;;32.50;47.10;;;;;;5047407;28;20061;-55
2023/09/25 11:15:16;;;;;;;1.63;1.30;;;31.80;52.00;;;;;;5037670;28;20044;-55
2023/09/25 11:17:41;;;;;;;2.50;1.23;;;30.70;48.80;;;;;;5043581;28;20095;-55
2023/09/25 11:20:18;;;;;;;1.48;1.05;;;30.80;50.30;;;;;;5045505;28;20483;-55
2023/09/25 11:22:48;;;;;;;5.05;1.02;;;31.50;51.60;;;;;;5039910;28;20018;-55
2023/09/25 11:25:15;;;;;;;;;;;32.10;51.40;;;;;;5044788;28;20039;-55
2023/09/25 11:27:53;;;;;;;0.80;0.80;;;32.50;51.00;;;;;;5036214;28;19916;-56
2023/09/25 11:30:20;;;;;;;0.90;0.70;;;31.80;50.10;;;;;;5050280;28;20029;-56
2023/09/25 11:32:45;;;;;;;2.20;1.05;;;32.60;51.50;;;;;;5038838;28;20491;-55
2023/09/25 11:35:14;;;;;;;2.63;1.02;;;32.30;49.20;;;;;;5039646;28;20179;-55
2023/09/25 11:38:02;;;;;;;1.65;1.15;;;31.70;49.00;;;;;;5036385;28;20159;-56
2023/09/25 11:40:28;;;;;;;1.58;1.27;;;31.60;50.50;;;;;;5040172;28;20110;-56
2023/09/25 11:42:56;;;;;;;1.77;1.08;;;31.50;49.70;;;;;;5034332;28;20104;-56
2023/09/25 11:45:22;;;;;;;1.70;1.52;;;31.90;50.20;;;;;;5045288;28;20024;-56
2023/09/25 11:47:48;;;;;;;2.10;1.00;;;32.00;51.10;;;;;;5038172;28;20029;-55
2023/09/25 11:50:16;;;;;;;3.60;1.05;;;32.30;50.10;;;;;;5044242;28;20564;-56
2023/09/25 11:52:42;;;;;;;2.97;1.00;;;31.90;47.80;;;;;;5041161;28;20022;-56
2023/09/25 11:55:11;;;;;;;1.95;0.93;;;32.20;49.70;;;;;;5038443;28;20021;-56
2023/09/25 11:57:38;;;;;;;1.80;1.10;;;32.80;48.20;;;;;;5042429;28;20064;-55
2023/09/25 12:00:07;;;;;;;1.23;0.75;;;32.60;47.60;;;;;;5040210;28;20459;-55
2023/09/25 12:02:33;;;;;;;1.98;1.13;;;30.80;47.90;;;;;;5036819;28;20032;-56
2023/09/25 12:04:58;;;;;;;2.35;1.30;;;29.70;49.60;;;;;;5034886;28;20021;-56
2023/09/25 12:07:26;;;;;;;1.52;1.00;;;29.10;49.90;;;;;;5039496;28;20386;-56
2023/09/25 12:09:52;;;;;;;3.13;0.98;;;28.80;51.70;;;;;;5045428;28;20080;-56
2023/09/25 12:12:18;;;;;;;1.15;1.05;;;28.70;52.00;;;;;;5038575;28;20033;-56
2023/09/25 12:14:43;;;;;;;3.03;1.50;;;28.60;52.20;;;;;;5035807;28;20053;-56
2023/09/25 12:17:10;;;;;;;2.08;1.17;;;28.20;53.50;;;;;;5041296;28;20028;-56
2023/09/25 12:19:36;;;;;;;1.80;0.90;;;28.20;53.60;;;;;;5036611;28;20435;-56
2023/09/25 12:22:02;;;;;;;2.63;1.15;;;27.70;53.00;;;;;;5040320;28;20108;-56
2023/09/25 12:24:28;;;;;;;5.57;1.42;;;27.20;53.50;;;;;;5047619;28;20112;-56
2023/09/25 12:26:53;;;;;;;1.42;1.33;;;26.80;53.20;;;;;;5043027;28;20013;-56
2023/09/25 12:29:19;;;;;;;2.28;1.38;;;26.10;55.10;;;;;;5044646;28;20067;-56
2023/09/25 12:31:44;;;;;;;2.05;1.30;;;25.70;56.70;;;;;;5041035;28;20162;-56
2023/09/25 12:34:10;;;;;;;2.17;1.30;;;25.60;57.30;;;;;;5042521;28;20464;-56
2023/09/25 12:36:35;;;;;;;2.85;1.50;;;25.10;56.90;;;;;;5047828;28;20159;-56
2023/09/25 12:39:01;;;;;;;2.55;1.67;;;25.20;58.60;;;;;;5045666;28;20036;-56
2023/09/25 12:41:27;;;;;;;3.13;1.20;;;24.90;58.00;;;;;;5039991;28;20107;-56
2023/09/25 12:43:53;;;;;;;1.70;1.42;;;25.20;58.20;;;;;;5041304;28;20152;-56
2023/09/25 12:46:18;;;;;;;2.50;1.20;;;25.30;59.70;;;;;;5049158;28;20546;-56